Pagrindinis puslapis
METAR-TAF:

METAR-TAF

Oro uostai :

Kuusamo, Suomija

platuma: 65-58N, ilguma: 029-11E, Aukštis: 262 m

Dabartinis oras

Ataskaita buvo paskelbta 38 minutes, ne 14:20 UTC
Vėjas 5 kt iš Rytų, svyruoja nuo Šiaurės Rytų ir Rytų/Pietryčių
Temperatūra 6°C
Drėgmė 70%
Slėgis 1032 hPa
Matomumas 10 km arba daugiau
Apsiniaukę ne aukštis 4600 ft

METAR: EFKS 191420Z AUTO 09005KT 050V120 9999 OVC046 06/01 Q1032

Laikas: 17:58 (14:58 UTC)

Prognozė

Ataskaita buvo paskelbta 26 minutes, ne 14:32 UTC
Prognozė galioja nuo 19 metu 15 UTC su 19 metu 21 UTC
Vėjas 6 kt iš Rytų
Matomumas 10 km arba daugiau
Mažai debesys ne aukštis 2500 ft
Su prošvaistėmis ne aukštis 4500 ft

TAF: EFKS 191432Z 1915/1921 09006KT 9999 FEW025 BKN045

Orai ataskaitas ir orų prognozės (METAR, TAF).

turimą stotys yra geltonos ir raudonos taškus žemėlapyje.

Perkelti pele per norėdami pamatyti stoties vardą.

Tada spustelėkite, norėdami matyti oro stebėjimo ir prognozės.

Norėdami pakeisti žemėlapį: spustelėkite ant žalios mygtukų su juodo kryžiaus žemyn,; žalią mygtuką su brūkšneliu, jei norite nutolinti; arba žalių rodyklių gretimoms žemėlapius.


METAR-TAF: